馬祖南竿航空站 - ATIS

METAR RCFG 021100Z 06005KT 020V100 CAVOK 12/03 Q1022 NOSIG RMK 04008KT/R21 MAX WND 08KT/R03 03008KT/NJL A3018(Q)=

站台狀態:Online
最後更新:2021-12-03 03:00:01